Time;durP1;ratioP1;P1;durP2;ratioP2;P2;SDS_P1;SDS_P2;PMS_P1;PMS_P2;Temp;Humidity;BMP_temperature;BMP_pressure;BME280_temperature;BME280_humidity;BME280_pressure;Samples;Min_cycle;Max_cycle;Signal;HPM_P1;HPM_P2
2023/06/20 00:02:23;;;;;;;13.02;8.55;;;;;;;;;;5064306;28;20043;-75
2023/06/20 00:04:49;;;;;;;12.95;8.68;;;;;;;;;;5072007;28;20044;-75
2023/06/20 00:07:15;;;;;;;13.13;8.63;;;;;;;;;;5073100;28;20074;-75
2023/06/20 00:09:41;;;;;;;11.02;8.13;;;;;;;;;;5072569;28;20044;-75
2023/06/20 00:12:08;;;;;;;19.58;9.52;;;;;;;;;;5068698;28;20046;-75
2023/06/20 00:14:37;;;;;;;13.05;9.32;;;;;;;;;;5056019;28;20048;-75
2023/06/20 00:17:05;;;;;;;14.32;8.70;;;;;;;;;;5072589;28;20098;-75
2023/06/20 00:19:31;;;;;;;15.50;8.90;;;;;;;;;;5059796;28;20040;-75
2023/06/20 00:21:57;;;;;;;14.00;9.20;;;;;;;;;;5069393;28;20040;-75
2023/06/20 00:24:24;;;;;;;13.10;9.00;;;;;;;;;;5063559;28;20054;-75
2023/06/20 00:26:50;;;;;;;15.55;9.27;;;;;;;;;;5064653;28;20423;-75
2023/06/20 00:29:16;;;;;;;16.80;9.95;;;;;;;;;;5069635;28;20040;-75
2023/06/20 00:31:42;;;;;;;12.43;8.60;;;;;;;;;;5065744;28;20452;-74
2023/06/20 00:34:08;;;;;;;13.55;8.75;;;;;;;;;;5067457;28;20040;-75
2023/06/20 00:36:34;;;;;;;12.40;8.80;;;;;;;;;;5095866;28;20036;-75
2023/06/20 00:39:00;;;;;;;14.23;8.77;;;;;;;;;;5072548;28;20055;-75
2023/06/20 00:41:26;;;;;;;11.77;8.20;;;;;;;;;;5072449;28;20116;-75
2023/06/20 00:43:52;;;;;;;14.55;9.38;;;;;;;;;;5062133;28;20175;-75
2023/06/20 00:46:20;;;;;;;14.05;9.20;;;;;;;;;;5072693;28;20043;-75
2023/06/20 00:48:50;;;;;;;12.68;9.25;;;;;;;;;;5058358;28;20483;-74
2023/06/20 00:51:17;;;;;;;13.30;9.82;;;;;;;;;;5072438;28;20041;-74
2023/06/20 00:57:27;;;;;;;16.05;10.02;;;;;;;;;;5040199;22;20060;-78
2023/06/20 00:59:54;;;;;;;14.80;9.80;;;;;;;;;;5065568;22;20044;-75
2023/06/20 01:02:21;;;;;;;15.32;9.68;;;;;;;;;;5071077;28;20047;-74
2023/06/20 01:04:48;;;;;;;14.90;10.10;;;;;;;;;;5091448;28;20047;-75
2023/06/20 01:07:17;;;;;;;15.25;9.02;;;;;;;;;;5074913;28;20430;-74
2023/06/20 01:10:10;;;;;;;12.85;8.93;;;;;;;;;;5091764;28;20032;-74
2023/06/20 01:12:36;;;;;;;19.02;10.55;;;;;;;;;;5051997;28;20051;-75
2023/06/20 01:15:12;;;;;;;16.38;9.75;;;;;;;;;;5091809;28;20096;-75
2023/06/20 01:17:45;;;;;;;17.30;10.50;;;;;;;;;;5074694;28;20120;-75
2023/06/20 01:20:15;;;;;;;16.73;9.95;;;;;;;;;;5090596;28;20080;-80
2023/06/20 01:23:02;;;;;;;16.60;10.93;;;;;;;;;;5091826;28;20484;-74
2023/06/20 01:25:47;;;;;;;21.73;10.73;;;;;;;;;;5092832;28;20039;-75
2023/06/20 01:28:28;;;;;;;14.50;9.82;;;;;;;;;;5089507;28;20044;-75
2023/06/20 01:31:04;;;;;;;14.95;10.23;;;;;;;;;;5087147;28;20127;-75
2023/06/20 01:33:32;;;;;;;12.63;9.43;;;;;;;;;;5080169;28;20489;-80
2023/06/20 01:36:00;;;;;;;17.25;10.45;;;;;;;;;;5092297;28;20028;-78
2023/06/20 01:38:28;;;;;;;12.02;8.85;;;;;;;;;;5091886;28;20396;-79
2023/06/20 01:40:55;;;;;;;13.18;9.27;;;;;;;;;;5074145;28;20068;-80
2023/06/20 01:43:22;;;;;;;17.33;9.50;;;;;;;;;;5091256;28;20071;-80
2023/06/20 01:45:49;;;;;;;14.98;9.70;;;;;;;;;;5091268;28;20048;-79
2023/06/20 01:48:16;;;;;;;12.63;9.27;;;;;;;;;;5092133;28;20420;-80
2023/06/20 01:50:42;;;;;;;13.23;8.85;;;;;;;;;;5091301;28;20101;-77
2023/06/20 01:53:09;;;;;;;15.05;9.15;;;;;;;;;;5090467;28;20036;-80
2023/06/20 01:55:37;;;;;;;15.10;9.10;;;;;;;;;;5092780;28;20075;-80
2023/06/20 01:58:03;;;;;;;12.38;8.73;;;;;;;;;;5090215;28;20496;-80
2023/06/20 02:00:31;;;;;;;14.65;8.90;;;;;;;;;;5092137;28;20047;-80
2023/06/20 02:02:58;;;;;;;12.32;8.32;;;;;;;;;;5088975;28;20047;-79
2023/06/20 02:05:25;;;;;;;12.88;8.13;;;;;;;;;;5088682;28;20550;-79
2023/06/20 02:07:55;;;;;;;12.85;7.88;;;;;;;;;;5089912;28;20369;-80
2023/06/20 02:10:21;;;;;;;12.63;8.40;;;;;;;;;;5090929;28;20044;-81
2023/06/20 02:12:49;;;;;;;13.13;8.18;;;;;;;;;;5073736;28;20538;-79
2023/06/20 02:15:16;;;;;;;13.55;7.93;;;;;;;;;;5074162;28;20040;-79
2023/06/20 02:17:42;;;;;;;13.80;8.23;;;;;;;;;;5090801;28;20044;-80
2023/06/20 02:20:09;;;;;;;16.33;8.65;;;;;;;;;;5091781;28;20049;-79
2023/06/20 02:22:36;;;;;;;12.27;8.27;;;;;;;;;;5090325;28;21975;-80
2023/06/20 02:25:06;;;;;;;11.98;8.05;;;;;;;;;;5090864;28;20039;-79
2023/06/20 02:27:32;;;;;;;14.32;8.68;;;;;;;;;;5090833;28;20500;-79
2023/06/20 02:30:00;;;;;;;13.52;8.27;;;;;;;;;;5090761;28;20043;-79
2023/06/20 02:32:26;;;;;;;12.30;8.18;;;;;;;;;;5091903;28;20119;-80
2023/06/20 02:34:53;;;;;;;12.93;8.55;;;;;;;;;;5076290;28;20102;-79
2023/06/20 02:37:19;;;;;;;13.02;8.32;;;;;;;;;;5092068;28;20040;-79
2023/06/20 02:39:45;;;;;;;12.82;9.05;;;;;;;;;;5091860;28;20064;-78
2023/06/20 02:42:12;;;;;;;15.25;8.85;;;;;;;;;;5094459;28;20055;-74
2023/06/20 02:44:38;;;;;;;15.73;9.00;;;;;;;;;;5094747;28;20412;-74
2023/06/20 02:47:07;;;;;;;13.07;9.25;;;;;;;;;;5092673;28;20541;-74
2023/06/20 02:49:36;;;;;;;15.80;9.25;;;;;;;;;;5088832;28;20063;-73
2023/06/20 02:52:17;;;;;;;14.95;9.80;;;;;;;;;;5094643;28;20481;-73
2023/06/20 02:55:02;;;;;;;13.48;9.65;;;;;;;;;;5094510;28;20052;-74
2023/06/20 02:57:29;;;;;;;14.18;10.15;;;;;;;;;;5094920;28;20607;-73
2023/06/20 02:59:59;;;;;;;16.10;9.63;;;;;;;;;;5094135;28;20135;-74
2023/06/20 03:02:29;;;;;;;13.90;9.88;;;;;;;;;;5094760;28;20056;-74
2023/06/20 03:04:57;;;;;;;13.05;9.43;;;;;;;;;;5093614;28;20032;-73
2023/06/20 03:07:24;;;;;;;16.40;9.43;;;;;;;;;;5094126;28;20051;-73
2023/06/20 03:09:51;;;;;;;13.85;10.32;;;;;;;;;;5095421;28;20104;-74
2023/06/20 03:12:17;;;;;;;15.55;10.82;;;;;;;;;;5095111;28;20465;-74
2023/06/20 03:14:43;;;;;;;15.85;10.73;;;;;;;;;;5094133;28;20048;-74
2023/06/20 03:17:09;;;;;;;16.55;10.40;;;;;;;;;;5093546;28;20044;-74
2023/06/20 03:19:35;;;;;;;16.08;10.35;;;;;;;;;;5093958;28;20122;-73
2023/06/20 03:22:01;;;;;;;15.70;10.77;;;;;;;;;;5076938;28;20043;-75
2023/06/20 03:24:27;;;;;;;17.60;11.30;;;;;;;;;;5093532;28;20126;-73
2023/06/20 03:26:53;;;;;;;16.48;11.57;;;;;;;;;;5093951;28;20048;-76
2023/06/20 03:29:19;;;;;;;14.57;10.63;;;;;;;;;;5093770;28;20536;-74
2023/06/20 03:31:45;;;;;;;17.17;11.63;;;;;;;;;;5095040;28;20396;-75
2023/06/20 03:34:11;;;;;;;12.70;9.93;;;;;;;;;;5076350;28;20090;-74
2023/06/20 03:36:38;;;;;;;16.40;11.15;;;;;;;;;;5095230;28;20036;-75
2023/06/20 03:39:04;;;;;;;17.23;11.32;;;;;;;;;;5076690;28;20036;-75
2023/06/20 03:41:30;;;;;;;16.45;10.88;;;;;;;;;;5094293;28;20492;-75
2023/06/20 03:43:56;;;;;;;15.77;10.20;;;;;;;;;;5077092;28;20106;-75
2023/06/20 03:46:22;;;;;;;18.05;11.60;;;;;;;;;;5094727;28;20097;-74
2023/06/20 03:48:48;;;;;;;15.23;10.70;;;;;;;;;;5093831;28;20509;-74
2023/06/20 03:51:14;;;;;;;15.88;10.45;;;;;;;;;;5093107;28;20416;-74
2023/06/20 03:53:40;;;;;;;17.70;10.98;;;;;;;;;;5067723;28;20036;-74
2023/06/20 03:56:07;;;;;;;17.30;10.98;;;;;;;;;;5092952;28;20044;-74
2023/06/20 03:58:33;;;;;;;15.63;11.32;;;;;;;;;;5094205;28;20043;-74
2023/06/20 04:00:59;;;;;;;15.18;10.90;;;;;;;;;;5093143;28;20553;-74
2023/06/20 04:03:25;;;;;;;13.77;10.30;;;;;;;;;;5092385;28;20092;-74
2023/06/20 04:05:51;;;;;;;15.00;11.20;;;;;;;;;;5092760;28;20036;-74
2023/06/20 04:08:17;;;;;;;15.65;10.70;;;;;;;;;;5093333;28;20048;-75
2023/06/20 04:10:43;;;;;;;15.15;10.35;;;;;;;;;;5094521;28;20058;-74
2023/06/20 04:13:09;;;;;;;16.85;11.32;;;;;;;;;;5092102;28;20036;-75
2023/06/20 04:15:36;;;;;;;17.15;10.48;;;;;;;;;;5093931;28;20115;-74
2023/06/20 04:18:02;;;;;;;17.83;9.90;;;;;;;;;;5093390;28;20051;-75
2023/06/20 04:20:28;;;;;;;15.65;10.70;;;;;;;;;;5093782;28;20101;-74
2023/06/20 04:22:54;;;;;;;14.88;10.18;;;;;;;;;;5076034;28;20036;-75
2023/06/20 04:25:20;;;;;;;15.85;10.23;;;;;;;;;;5075625;28;20040;-74
2023/06/20 04:27:53;;;;;;;15.07;10.82;;;;;;;;;;5092335;28;20504;-74
2023/06/20 04:30:20;;;;;;;13.38;10.35;;;;;;;;;;5093286;28;20070;-76
2023/06/20 04:32:46;;;;;;;16.25;11.07;;;;;;;;;;5076213;28;20450;-74
2023/06/20 04:35:12;;;;;;;16.02;10.82;;;;;;;;;;5092312;28;20063;-75
2023/06/20 04:37:38;;;;;;;18.30;10.15;;;;;;;;;;5092696;28;20040;-75
2023/06/20 04:40:05;;;;;;;17.50;10.73;;;;;;;;;;5075195;28;20104;-74
2023/06/20 04:42:32;;;;;;;16.05;10.45;;;;;;;;;;5091255;28;20484;-75
2023/06/20 04:44:58;;;;;;;15.30;10.60;;;;;;;;;;5086611;28;20032;-74
2023/06/20 04:47:24;;;;;;;16.02;10.73;;;;;;;;;;5092910;28;20386;-75
2023/06/20 04:49:50;;;;;;;15.63;10.65;;;;;;;;;;5075950;28;20043;-75
2023/06/20 04:52:17;;;;;;;16.27;10.43;;;;;;;;;;5092326;28;20078;-75
2023/06/20 04:54:43;;;;;;;18.52;10.60;;;;;;;;;;5076005;28;20448;-76
2023/06/20 04:57:09;;;;;;;14.77;10.18;;;;;;;;;;5092323;28;20377;-75
2023/06/20 04:59:38;;;;;;;15.77;10.05;;;;;;;;;;5091601;28;20055;-74
2023/06/20 05:02:05;;;;;;;14.88;10.20;;;;;;;;;;5091736;28;20052;-75
2023/06/20 05:04:32;;;;;;;17.15;11.00;;;;;;;;;;5090617;28;20166;-74
2023/06/20 05:07:00;;;;;;;16.08;10.93;;;;;;;;;;5093322;28;20039;-75
2023/06/20 05:09:26;;;;;;;17.42;9.88;;;;;;;;;;5091164;28;20048;-75
2023/06/20 05:11:52;;;;;;;15.27;10.02;;;;;;;;;;5074482;28;20036;-74
2023/06/20 05:14:18;;;;;;;15.10;10.85;;;;;;;;;;5091757;28;20052;-78
2023/06/20 05:16:44;;;;;;;15.32;10.27;;;;;;;;;;5091888;28;20036;-78
2023/06/20 05:19:10;;;;;;;13.75;9.98;;;;;;;;;;5091937;28;20040;-79
2023/06/20 05:21:36;;;;;;;13.40;10.15;;;;;;;;;;5091870;28;20488;-81
2023/06/20 05:24:02;;;;;;;16.05;9.80;;;;;;;;;;5091606;28;20067;-78
2023/06/20 05:26:29;;;;;;;13.88;9.88;;;;;;;;;;5074427;28;20485;-79
2023/06/20 05:28:55;;;;;;;14.40;9.73;;;;;;;;;;5090483;28;20056;-79
2023/06/20 05:31:21;;;;;;;13.32;10.60;;;;;;;;;;5078499;28;20040;-78
2023/06/20 05:33:47;;;;;;;17.08;10.50;;;;;;;;;;5074835;28;20461;-78
2023/06/20 05:36:13;;;;;;;14.65;10.60;;;;;;;;;;5091134;28;20040;-78
2023/06/20 05:38:40;;;;;;;14.63;10.32;;;;;;;;;;5093573;28;20063;-79
2023/06/20 05:41:06;;;;;;;16.60;11.13;;;;;;;;;;5074817;28;20054;-78
2023/06/20 05:43:33;;;;;;;16.80;10.35;;;;;;;;;;5091340;28;20489;-81
2023/06/20 05:45:59;;;;;;;15.95;10.73;;;;;;;;;;5074522;28;20131;-81
2023/06/20 05:48:25;;;;;;;14.85;10.63;;;;;;;;;;5090854;28;20040;-81
2023/06/20 05:50:52;;;;;;;16.98;11.38;;;;;;;;;;5092904;28;20400;-80
2023/06/20 05:53:20;;;;;;;15.80;10.10;;;;;;;;;;5090916;28;20046;-79
2023/06/20 05:55:46;;;;;;;14.77;10.45;;;;;;;;;;5074801;28;20374;-79
2023/06/20 05:58:12;;;;;;;18.02;11.07;;;;;;;;;;5092619;28;20374;-79
2023/06/20 06:00:38;;;;;;;14.40;10.23;;;;;;;;;;5090766;28;20044;-79
2023/06/20 06:03:04;;;;;;;17.20;10.20;;;;;;;;;;5090987;28;20123;-80
2023/06/20 06:05:31;;;;;;;15.95;10.15;;;;;;;;;;5090480;28;20485;-79
2023/06/20 06:07:57;;;;;;;15.98;10.20;;;;;;;;;;5074471;28;20043;-78
2023/06/20 06:10:25;;;;;;;15.77;10.02;;;;;;;;;;5090766;28;20435;-79
2023/06/20 06:12:51;;;;;;;14.18;10.43;;;;;;;;;;5090655;28;20051;-79
2023/06/20 06:15:17;;;;;;;13.82;10.35;;;;;;;;;;5092078;28;20446;-78
2023/06/20 06:17:43;;;;;;;14.48;10.10;;;;;;;;;;5074439;28;20114;-82
2023/06/20 06:20:17;;;;;;;17.02;10.55;;;;;;;;;;5091455;28;20524;-78
2023/06/20 06:22:43;;;;;;;14.52;10.40;;;;;;;;;;5088862;28;20531;-78
2023/06/20 06:25:09;;;;;;;15.50;10.30;;;;;;;;;;5090634;28;20043;-80
2023/06/20 06:27:37;;;;;;;16.00;10.20;;;;;;;;;;5090528;28;20039;-81
2023/06/20 06:30:03;;;;;;;15.60;10.23;;;;;;;;;;5091080;28;20120;-80
2023/06/20 06:32:31;;;;;;;13.95;10.70;;;;;;;;;;5092084;28;20052;-83
2023/06/20 06:34:59;;;;;;;15.70;10.60;;;;;;;;;;5092179;28;20089;-82
2023/06/20 06:37:27;;;;;;;15.32;10.27;;;;;;;;;;5057458;28;20108;-82
2023/06/20 06:39:55;;;;;;;13.63;9.85;;;;;;;;;;5092564;28;20032;-79
2023/06/20 06:42:21;;;;;;;15.80;11.00;;;;;;;;;;5090559;28;20048;-75
2023/06/20 06:44:47;;;;;;;14.10;11.05;;;;;;;;;;5076964;28;20119;-74
2023/06/20 06:47:13;;;;;;;13.73;10.73;;;;;;;;;;5073030;28;20040;-74
2023/06/20 06:49:39;;;;;;;13.93;10.40;;;;;;;;;;5090245;28;20036;-75
2023/06/20 06:52:06;;;;;;;13.93;10.05;;;;;;;;;;5089700;28;20047;-75
2023/06/20 06:54:32;;;;;;;13.45;10.82;;;;;;;;;;5073350;28;20044;-75
2023/06/20 06:56:58;;;;;;;15.00;10.18;;;;;;;;;;5073694;28;20055;-76
2023/06/20 06:59:24;;;;;;;15.35;10.90;;;;;;;;;;5089151;28;20138;-77
2023/06/20 07:01:51;;;;;;;13.00;10.23;;;;;;;;;;5089843;28;20055;-75
2023/06/20 07:04:17;;;;;;;14.40;10.45;;;;;;;;;;5091627;28;20044;-76
2023/06/20 07:06:43;;;;;;;14.93;11.00;;;;;;;;;;5090009;28;20043;-75
2023/06/20 07:09:09;;;;;;;13.80;10.52;;;;;;;;;;5063443;28;20123;-69
2023/06/20 07:11:36;;;;;;;16.90;10.45;;;;;;;;;;5090025;28;20036;-69
2023/06/20 07:14:02;;;;;;;18.15;11.15;;;;;;;;;;5089661;28;20114;-68
2023/06/20 07:16:31;;;;;;;12.95;10.43;;;;;;;;;;5089795;28;20492;-69
2023/06/20 07:18:58;;;;;;;14.77;10.45;;;;;;;;;;5091464;28;20039;-69
2023/06/20 07:21:24;;;;;;;13.18;10.85;;;;;;;;;;5090392;28;20115;-68
2023/06/20 07:23:50;;;;;;;12.65;10.02;;;;;;;;;;5090751;28;20089;-69
2023/06/20 07:26:16;;;;;;;18.05;10.98;;;;;;;;;;5091182;28;20039;-68
2023/06/20 07:28:42;;;;;;;16.15;10.90;;;;;;;;;;5093546;28;20047;-68
2023/06/20 07:31:09;;;;;;;12.18;10.20;;;;;;;;;;5095136;28;20488;-69
2023/06/20 07:33:35;;;;;;;14.40;10.15;;;;;;;;;;5094603;28;20040;-69
2023/06/20 07:36:01;;;;;;;12.13;10.35;;;;;;;;;;5094981;28;20067;-69
2023/06/20 07:38:28;;;;;;;14.23;11.35;;;;;;;;;;5095433;28;20104;-69
2023/06/20 07:40:54;;;;;;;15.57;10.57;;;;;;;;;;5094554;28;20071;-68
2023/06/20 07:43:24;;;;;;;15.07;10.85;;;;;;;;;;5092803;28;20047;-69
2023/06/20 07:45:50;;;;;;;11.95;10.35;;;;;;;;;;5093328;28;20051;-69
2023/06/20 07:48:16;;;;;;;13.40;10.73;;;;;;;;;;5093159;28;20032;-68
2023/06/20 07:50:42;;;;;;;15.48;10.85;;;;;;;;;;5093189;28;20488;-68
2023/06/20 07:53:09;;;;;;;14.45;11.05;;;;;;;;;;5092239;28;20028;-68
2023/06/20 07:55:35;;;;;;;15.98;10.88;;;;;;;;;;5091916;28;20051;-68
2023/06/20 07:58:01;;;;;;;14.57;10.98;;;;;;;;;;5092766;28;20165;-68
2023/06/20 08:00:28;;;;;;;16.65;10.68;;;;;;;;;;5092826;28;20113;-68
2023/06/20 08:02:54;;;;;;;13.43;11.10;;;;;;;;;;5092058;28;20040;-69
2023/06/20 08:05:20;;;;;;;18.60;10.25;;;;;;;;;;5091164;28;20079;-69
2023/06/20 08:07:47;;;;;;;18.10;10.48;;;;;;;;;;5093090;28;20040;-69
2023/06/20 08:10:13;;;;;;;17.23;11.10;;;;;;;;;;5092931;28;20123;-69
2023/06/20 08:12:39;;;;;;;11.27;9.85;;;;;;;;;;5093047;28;20519;-70
2023/06/20 08:15:05;;;;;;;13.57;10.02;;;;;;;;;;5092668;28;20451;-69
2023/06/20 08:17:32;;;;;;;13.82;10.80;;;;;;;;;;5092755;28;20094;-70
2023/06/20 08:19:59;;;;;;;14.55;11.00;;;;;;;;;;5093563;28;20048;-71
2023/06/20 08:22:28;;;;;;;16.23;9.98;;;;;;;;;;5094354;28;20562;-70
2023/06/20 08:24:54;;;;;;;13.30;9.68;;;;;;;;;;5093287;28;20400;-69
2023/06/20 08:27:20;;;;;;;16.52;11.43;;;;;;;;;;5093925;28;20489;-70
2023/06/20 08:29:46;;;;;;;11.82;10.00;;;;;;;;;;5093078;28;20075;-76
2023/06/20 08:32:12;;;;;;;27.23;11.13;;;;;;;;;;5082905;28;20040;-75
2023/06/20 08:34:38;;;;;;;19.92;11.05;;;;;;;;;;5082907;28;20071;-78
2023/06/20 08:37:06;;;;;;;13.40;10.52;;;;;;;;;;5093056;28;20549;-77
2023/06/20 08:39:32;;;;;;;16.35;10.98;;;;;;;;;;5091691;28;20051;-75
2023/06/20 08:41:58;;;;;;;15.70;11.07;;;;;;;;;;5092934;28;20052;-75
2023/06/20 08:44:24;;;;;;;22.30;10.75;;;;;;;;;;5092500;28;20052;-75
2023/06/20 08:46:56;;;;;;;18.02;11.43;;;;;;;;;;5091557;28;20031;-77
2023/06/20 08:49:22;;;;;;;13.15;11.23;;;;;;;;;;5092623;28;20040;-75
2023/06/20 08:51:49;;;;;;;13.88;10.38;;;;;;;;;;5092199;28;20044;-73
2023/06/20 08:54:17;;;;;;;14.55;11.38;;;;;;;;;;5092509;28;20048;-76
2023/06/20 08:56:44;;;;;;;13.82;11.68;;;;;;;;;;5091881;28;20119;-74
2023/06/20 08:59:10;;;;;;;15.77;11.57;;;;;;;;;;5065827;28;20096;-76
2023/06/20 09:01:36;;;;;;;11.13;9.10;;;;;;;;;;5090555;28;20093;-75
2023/06/20 09:04:02;;;;;;;12.90;9.77;;;;;;;;;;5093434;28;20081;-73
2023/06/20 09:06:37;;;;;;;14.13;10.38;;;;;;;;;;5092211;28;20036;-74
2023/06/20 09:09:06;;;;;;;13.30;9.60;;;;;;;;;;5091130;28;20032;-75
2023/06/20 09:11:35;;;;;;;13.30;10.32;;;;;;;;;;5089781;28;20067;-76
2023/06/20 09:14:02;;;;;;;12.85;10.10;;;;;;;;;;5092114;28;20044;-75
2023/06/20 09:16:28;;;;;;;15.15;10.48;;;;;;;;;;5075498;28;20040;-75
2023/06/20 09:19:03;;;;;;;23.88;9.13;;;;;;;;;;5092637;28;20071;-76
2023/06/20 09:21:29;;;;;;;;;;;;;;;;;;5075993;28;20496;-76
2023/06/20 09:24:01;;;;;;;14.25;9.05;;;;;;;;;;5091106;28;19916;-77
2023/06/20 09:26:29;;;;;;;12.20;8.90;;;;;;;;;;5092017;28;20047;-71
2023/06/20 09:29:07;;;;;;;18.25;8.68;;;;;;;;;;5091245;28;20032;-76
2023/06/20 09:32:00;;;;;;;10.50;8.48;;;;;;;;;;5092091;28;20404;-75
2023/06/20 09:34:26;;;;;;;12.55;8.00;;;;;;;;;;5071213;28;20492;-75
2023/06/20 09:36:52;;;;;;;12.57;9.15;;;;;;;;;;5091372;28;20051;-75
2023/06/20 09:39:22;;;;;;;11.10;9.52;;;;;;;;;;5091745;28;20047;-76
2023/06/20 09:41:49;;;;;;;10.95;9.45;;;;;;;;;;5091480;28;20032;-76
2023/06/20 09:44:16;;;;;;;11.70;9.43;;;;;;;;;;5091107;28;20405;-70
2023/06/20 09:46:43;;;;;;;12.13;9.45;;;;;;;;;;5090631;28;20039;-80
2023/06/20 09:49:11;;;;;;;14.02;9.93;;;;;;;;;;5090363;28;20093;-83
2023/06/20 09:51:57;;;;;;;14.73;10.13;;;;;;;;;;5093616;28;20115;-74
2023/06/20 09:54:33;;;;;;;14.93;9.27;;;;;;;;;;5090947;28;20067;-74
2023/06/20 09:57:04;;;;;;;14.88;10.68;;;;;;;;;;5092361;28;20042;-75
2023/06/20 09:59:32;;;;;;;13.80;10.10;;;;;;;;;;5089551;28;20063;-74
2023/06/20 10:01:59;;;;;;;13.13;9.40;;;;;;;;;;5090355;28;20074;-72
2023/06/20 10:04:27;;;;;;;13.88;9.88;;;;;;;;;;5091161;28;20047;-73
2023/06/20 10:06:55;;;;;;;11.10;9.55;;;;;;;;;;5073537;28;20157;-75
2023/06/20 10:09:22;;;;;;;14.68;11.57;;;;;;;;;;5090961;28;20047;-74
2023/06/20 10:11:48;;;;;;;13.73;10.05;;;;;;;;;;5072570;28;20085;-75
2023/06/20 10:14:14;;;;;;;12.85;9.70;;;;;;;;;;5092505;28;20385;-84
2023/06/20 10:16:46;;;;;;;11.30;9.95;;;;;;;;;;5091331;28;20083;-82
2023/06/20 10:19:16;;;;;;;13.60;9.98;;;;;;;;;;5074142;28;20126;-84
2023/06/20 10:21:53;;;;;;;15.77;11.43;;;;;;;;;;5091838;28;20044;-83
2023/06/20 10:24:19;;;;;;;10.77;9.65;;;;;;;;;;5090973;28;20044;-85
2023/06/20 10:26:50;;;;;;;21.48;10.43;;;;;;;;;;5089947;28;20051;-79
2023/06/20 10:29:16;;;;;;;16.77;10.98;;;;;;;;;;5073848;28;20047;-80
2023/06/20 10:32:17;;;;;;;15.98;9.32;;;;;;;;;;5091639;28;20111;-80
2023/06/20 10:34:43;;;;;;;10.80;9.00;;;;;;;;;;5029818;28;20375;-79
2023/06/20 10:37:14;;;;;;;11.38;9.57;;;;;;;;;;5079108;28;20144;-82
2023/06/20 10:39:51;;;;;;;12.82;9.10;;;;;;;;;;5091243;28;20540;-81
2023/06/20 10:42:37;;;;;;;10.88;8.18;;;;;;;;;;5090685;28;20112;-80
2023/06/20 10:45:19;;;;;;;13.40;9.57;;;;;;;;;;5085243;28;20111;-80
2023/06/20 10:47:46;;;;;;;12.68;9.07;;;;;;;;;;5089918;28;20064;-84
2023/06/20 10:50:15;;;;;;;8.20;7.40;;;;;;;;;;5091627;28;20099;-80
2023/06/20 10:52:41;;;;;;;9.25;8.30;;;;;;;;;;5089439;28;20032;-78
2023/06/20 10:55:08;;;;;;;8.43;7.53;;;;;;;;;;5091652;28;20075;-81
2023/06/20 10:57:35;;;;;;;10.13;7.78;;;;;;;;;;5091232;28;20453;-81
2023/06/20 11:00:14;;;;;;;8.60;7.72;;;;;;;;;;5090371;28;20055;-80
2023/06/20 11:02:40;;;;;;;8.10;6.47;;;;;;;;;;5094351;28;20123;-79
2023/06/20 11:05:07;;;;;;;12.73;6.68;;;;;;;;;;5095191;28;20460;-81
2023/06/20 11:07:33;;;;;;;7.10;6.00;;;;;;;;;;5094658;28;20075;-79
2023/06/20 11:09:59;;;;;;;9.60;6.70;;;;;;;;;;5093882;28;20403;-69
2023/06/20 11:12:25;;;;;;;9.35;6.78;;;;;;;;;;5093328;28;20096;-70
2023/06/20 11:14:51;;;;;;;11.15;6.55;;;;;;;;;;5084215;28;20040;-70
2023/06/20 11:17:17;;;;;;;7.93;6.00;;;;;;;;;;5067318;28;20102;-69
2023/06/20 11:19:43;;;;;;;9.43;5.60;;;;;;;;;;5095180;28;20032;-69
2023/06/20 11:22:10;;;;;;;9.55;5.25;;;;;;;;;;5093894;28;20052;-69
2023/06/20 11:24:36;;;;;;;12.70;6.63;;;;;;;;;;5076911;28;20424;-70
2023/06/20 11:27:15;;;;;;;8.00;5.63;;;;;;;;;;5091900;28;20316;-71
2023/06/20 11:29:41;;;;;;;7.38;5.60;;;;;;;;;;5090131;28;20557;-69
2023/06/20 11:32:08;;;;;;;12.52;5.85;;;;;;;;;;5092100;28;20036;-80
2023/06/20 11:34:34;;;;;;;9.20;6.30;;;;;;;;;;5093435;28;20051;-76
2023/06/20 11:37:00;;;;;;;8.13;5.55;;;;;;;;;;5092314;28;20574;-78
2023/06/20 11:39:26;;;;;;;7.80;5.72;;;;;;;;;;5092044;28;20050;-78
2023/06/20 11:41:52;;;;;;;12.70;5.75;;;;;;;;;;5093515;28;20090;-80
2023/06/20 11:44:22;;;;;;;7.22;5.93;;;;;;;;;;5093749;28;20044;-77
2023/06/20 11:46:48;;;;;;;7.63;5.80;;;;;;;;;;5095304;28;20538;-79
2023/06/20 11:49:14;;;;;;;7.43;5.47;;;;;;;;;;5096642;28;20032;-81
2023/06/20 11:51:40;;;;;;;7.68;5.10;;;;;;;;;;5095510;28;20455;-82
2023/06/20 11:54:09;;;;;;;9.70;5.43;;;;;;;;;;5095596;28;20035;-80
2023/06/20 11:56:35;;;;;;;9.35;5.35;;;;;;;;;;5095734;28;20059;-78
2023/06/20 11:59:01;;;;;;;9.00;5.65;;;;;;;;;;5095093;28;20084;-78
2023/06/20 12:01:28;;;;;;;7.07;5.50;;;;;;;;;;5096388;28;20043;-79
2023/06/20 12:04:14;;;;;;;8.07;5.25;;;;;;;;;;5093012;28;20181;-82
2023/06/20 12:06:44;;;;;;;9.73;5.45;;;;;;;;;;5088833;28;20044;-81
2023/06/20 12:09:16;;;;;;;7.65;5.50;;;;;;;;;;5090003;28;20040;-79
2023/06/20 12:11:49;;;;;;;8.82;5.53;;;;;;;;;;5093311;28;20063;-80
2023/06/20 12:14:15;;;;;;;10.10;5.72;;;;;;;;;;5089366;28;20036;-80
2023/06/20 12:16:41;;;;;;;10.40;5.72;;;;;;;;;;5095669;28;20044;-80
2023/06/20 12:19:08;;;;;;;9.20;6.20;;;;;;;;;;5092148;28;20097;-81
2023/06/20 12:21:34;;;;;;;15.65;6.20;;;;;;;;;;5090251;28;20048;-80
2023/06/20 12:24:00;;;;;;;7.60;5.47;;;;;;;;;;5093812;28;20077;-79
2023/06/20 12:26:26;;;;;;;17.50;6.25;;;;;;;;;;5092262;28;20536;-80
2023/06/20 12:28:53;;;;;;;9.38;5.50;;;;;;;;;;5093933;28;20508;-71
2023/06/20 12:31:19;;;;;;;22.92;6.38;;;;;;;;;;5092500;28;20054;-71
2023/06/20 12:33:45;;;;;;;7.57;5.03;;;;;;;;;;5093069;28;20040;-70
2023/06/20 12:36:11;;;;;;;9.57;5.40;;;;;;;;;;5093571;28;20036;-70
2023/06/20 12:38:37;;;;;;;7.18;4.90;;;;;;;;;;5092189;28;20044;-70
2023/06/20 12:41:03;;;;;;;6.00;5.28;;;;;;;;;;5092973;28;20028;-70
2023/06/20 12:43:29;;;;;;;8.65;4.97;;;;;;;;;;5092232;28;20044;-70
2023/06/20 12:45:58;;;;;;;8.10;5.00;;;;;;;;;;5093188;28;20075;-70
2023/06/20 12:48:25;;;;;;;5.80;5.13;;;;;;;;;;5092911;28;20035;-71
2023/06/20 12:50:52;;;;;;;10.07;5.20;;;;;;;;;;5093312;28;20108;-70
2023/06/20 12:53:18;;;;;;;10.77;5.82;;;;;;;;;;5093517;28;20032;-70
2023/06/20 12:55:47;;;;;;;8.52;5.35;;;;;;;;;;5093034;28;20040;-70
2023/06/20 12:58:14;;;;;;;7.85;5.18;;;;;;;;;;5090884;28;20040;-70
2023/06/20 13:00:43;;;;;;;10.35;5.13;;;;;;;;;;5090816;28;20138;-71
2023/06/20 13:03:10;;;;;;;7.78;5.07;;;;;;;;;;5090841;28;20047;-70
2023/06/20 13:05:36;;;;;;;7.63;5.13;;;;;;;;;;5090473;28;20045;-71
2023/06/20 13:08:03;;;;;;;6.72;5.28;;;;;;;;;;5093190;28;20040;-79
2023/06/20 13:10:30;;;;;;;7.00;4.85;;;;;;;;;;5090856;28;20105;-78
2023/06/20 13:12:58;;;;;;;7.60;5.00;;;;;;;;;;5074167;28;20067;-81
2023/06/20 13:15:24;;;;;;;6.90;4.80;;;;;;;;;;5090012;28;20048;-80
2023/06/20 13:17:54;;;;;;;7.28;5.13;;;;;;;;;;5073248;28;20527;-79
2023/06/20 13:20:20;;;;;;;6.68;4.80;;;;;;;;;;5089592;28;20052;-80
2023/06/20 13:22:46;;;;;;;6.32;5.10;;;;;;;;;;5092922;28;20043;-80
2023/06/20 13:25:12;;;;;;;6.18;5.03;;;;;;;;;;5090779;28;20135;-78
2023/06/20 13:27:38;;;;;;;6.00;5.07;;;;;;;;;;5071530;28;20054;-83
2023/06/20 13:30:05;;;;;;;14.13;5.30;;;;;;;;;;5091214;28;20040;-80
2023/06/20 13:32:31;;;;;;;6.47;5.38;;;;;;;;;;5090561;28;20101;-82
2023/06/20 13:34:57;;;;;;;7.50;5.22;;;;;;;;;;5074113;28;20493;-80
2023/06/20 13:37:23;;;;;;;10.68;5.38;;;;;;;;;;5090494;28;20370;-78
2023/06/20 13:39:49;;;;;;;12.50;5.78;;;;;;;;;;5085026;28;20036;-74
2023/06/20 13:42:15;;;;;;;6.90;5.00;;;;;;;;;;5072047;28;20122;-76
2023/06/20 13:44:41;;;;;;;7.43;5.18;;;;;;;;;;5090311;28;20048;-75
2023/06/20 13:47:07;;;;;;;12.68;5.88;;;;;;;;;;5090058;28;20047;-76
2023/06/20 13:49:33;;;;;;;7.78;4.93;;;;;;;;;;5090604;28;20418;-75
2023/06/20 13:51:59;;;;;;;5.88;4.97;;;;;;;;;;5090475;28;20047;-76
2023/06/20 13:54:26;;;;;;;6.78;4.95;;;;;;;;;;5090315;28;20036;-76
2023/06/20 13:56:52;;;;;;;10.90;4.90;;;;;;;;;;5073996;28;20039;-75
2023/06/20 13:59:18;;;;;;;10.95;5.20;;;;;;;;;;5053084;28;20056;-74
2023/06/20 14:01:44;;;;;;;7.40;5.10;;;;;;;;;;5083692;28;20127;-73
2023/06/20 14:04:10;;;;;;;5.90;4.90;;;;;;;;;;5090969;28;20044;-74
2023/06/20 14:06:36;;;;;;;7.25;5.53;;;;;;;;;;5079899;28;20553;-74
2023/06/20 14:09:04;;;;;;;6.50;5.18;;;;;;;;;;5086675;28;20067;-74
2023/06/20 14:11:30;;;;;;;7.43;5.13;;;;;;;;;;5091622;28;20050;-73
2023/06/20 14:13:56;;;;;;;7.10;4.90;;;;;;;;;;5074129;28;20032;-74
2023/06/20 14:16:23;;;;;;;6.05;4.82;;;;;;;;;;5091693;28;20036;-74
2023/06/20 14:18:49;;;;;;;6.00;4.80;;;;;;;;;;5090711;28;20074;-74
2023/06/20 14:21:15;;;;;;;7.10;4.82;;;;;;;;;;5092109;28;20036;-73
2023/06/20 14:23:42;;;;;;;6.07;4.82;;;;;;;;;;5090579;28;20120;-73
2023/06/20 14:26:08;;;;;;;5.38;4.60;;;;;;;;;;5092313;28;20040;-73
2023/06/20 14:28:35;;;;;;;6.93;5.03;;;;;;;;;;5090136;28;20032;-75
2023/06/20 14:31:01;;;;;;;6.85;4.70;;;;;;;;;;5091843;28;20472;-74
2023/06/20 14:33:27;;;;;;;5.97;4.82;;;;;;;;;;5090215;28;20043;-73
2023/06/20 14:35:53;;;;;;;6.28;5.38;;;;;;;;;;5090608;28;20048;-73